Flight Track Log - Related Links

Times and Time Zones

All times are in EST time to prevent confusion due to time zone crossing. See the RPA4893 flight status page for this flight to view local times or setup timezone preferences in your user account.

Time Position Orientation Groundspeed Altitude Reporting Facility
EST Latitude Longitude Course Direction KTS MPH feet Rate Location/Type
Sun 06:19:47 PM 38.8667 -77.0500 46° Northeast 155 178 1,000  Level Potomac TRACON
Sun 06:20:41 PM 38.9000 -77.0833 322° Northwest 178 205 3,200 2,316 Climbing Potomac TRACON
Sun 06:21:41 PM 38.9500 -77.1333 322° Northwest 191 220 5,400 2,286 Climbing Potomac TRACON
Sun 06:22:00 PM 39.0576 -76.7299 41° Northeast  Level Estimated
Sun 06:22:47 PM 38.9833 -77.1000 38° Northeast 249 287 8,000  Level Potomac TRACON
Sun 06:23:00 PM 39.0816 -76.5980 77° East  Level FlightAware Approximate
Sun 06:23:47 PM 38.9833 -77.0000 90° East 306 352 9,500  Level Potomac TRACON
Sun 06:24:00 PM 39.1514 -76.4965 42° Northeast  Level Estimated
Sun 06:24:47 PM 39.0000 -76.8833 80° East 327 376 10,500  Level Potomac TRACON
Sun 06:25:00 PM 39.2211 -76.3949 46° Northeast  Level Estimated
Sun 06:25:41 PM 39.0000 -76.7667 90° East 363 418 11,000  Level Potomac TRACON
Sun 06:26:41 PM 39.0167 -76.6333 81° East 377 434 11,000  Level Potomac TRACON
Sun 06:27:41 PM 39.0833 -76.5500 44° Northeast 336 387 11,000  Level Potomac TRACON
Sun 06:28:41 PM 39.1333 -76.4500 57° Northeast 325 374 11,000  Level Potomac TRACON
Sun 06:29:41 PM 39.2000 -76.3667 44° Northeast 336 387 11,000  Level Potomac TRACON
Sun 06:30:47 PM 39.2667 -76.2500 54° Northeast 338 389 11,000  Level Potomac TRACON
Sun 06:31:47 PM 39.3167 -76.1667 52° Northeast 335 386 11,000 -39 Level Potomac TRACON
Sun 06:33:21 PM 39.4167 -76.0167 49° Northeast 339 390 10,900 -39 Descending Philadelphia TRACON
Sun 06:34:21 PM 39.4833 -75.9333 44° Northeast 342 394 10,900 50 Level Philadelphia TRACON
Sun 06:35:21 PM 39.5333 -75.8167 61° Northeast 351 404 11,000 50 Climbing Philadelphia TRACON
Sun 06:36:20 PM 39.5667 -75.7000 70° East 353 406 11,000  Level Philadelphia TRACON
Sun 06:37:21 PM 39.6167 -75.6000 57° Northeast 352 405 11,000 -190 Level Philadelphia TRACON
Sun 06:38:26 PM 39.6667 -75.4667 64° Northeast 354 407 10,600 -476 Descending Philadelphia TRACON
Sun 06:39:27 PM 39.7167 -75.3667 57° Northeast 343 395 10,000 -298 Descending Philadelphia TRACON
Sun 06:40:27 PM 39.7500 -75.2500 70° East 334 384 10,000 -50 Level Philadelphia TRACON
Sun 06:41:27 PM 39.8000 -75.1500 57° Northeast 340 391 9,900  Descending Philadelphia TRACON
Sun 06:42:27 PM 39.8333 -75.0333 70° East 338 389 10,000 50 Climbing Philadelphia TRACON
Sun 06:43:27 PM 39.8833 -74.9333 57° Northeast 329 379 10,000 -368 Level Philadelphia TRACON
Sun 06:44:21 PM 39.9500 -74.8667 37° Northeast 288 331 9,300 -1,370 Descending Philadelphia TRACON
Sun 06:45:34 PM 40.0000 -74.7833 52° Northeast 276 318 7,100 -993 Descending New York TRACON
Sun 06:46:40 PM 40.0667 -74.7000 44° Northeast 253 291 7,000 -95 Descending New York TRACON
Sun 06:47:40 PM 40.1000 -74.6333 57° Northeast 262 302 6,900  Descending New York TRACON
Sun 06:48:40 PM 40.1667 -74.5667 37° Northeast 262 302 7,000  Climbing New York TRACON
Sun 06:49:40 PM 40.2167 -74.5667 360° North 237 273 6,900 -50 Descending New York TRACON
Sun 06:50:40 PM 40.2833 -74.5833 349° North 231 266 6,900 -450 Level New York TRACON
Sun 06:51:40 PM 40.3500 -74.6000 349° North 232 267 6,000 -450 Descending New York TRACON
Sun 06:52:40 PM 40.4167 -74.6000 360° North 229 264 6,000  Level New York TRACON
Sun 06:53:40 PM 40.4833 -74.6167 349° North 223 257 6,000  Level New York TRACON
Sun 06:54:40 PM 40.5333 -74.6167 360° North 226 260 6,000 50 Level New York TRACON
Sun 06:55:40 PM 40.6000 -74.6000 11° North 234 269 6,100  Climbing New York TRACON
Sun 06:56:34 PM 40.6667 -74.6000 360° North 230 265 6,000 -421 Descending New York TRACON
Sun 06:57:34 PM 40.7167 -74.5833 14° North 230 265 5,300 -429 Descending New York TRACON
Sun 06:58:40 PM 40.8000 -74.5667 North 232 267 5,100 -150 Descending New York TRACON
Sun 06:59:34 PM 40.8500 -74.5667 360° North 225 259 5,000 -50 Descending New York TRACON
Sun 07:00:40 PM 40.9000 -74.4833 52° Northeast 265 305 5,000 48 Level New York TRACON
Sun 07:01:40 PM 40.9167 -74.3833 78° East 281 323 5,100 -150 Climbing New York TRACON
Sun 07:02:40 PM 40.9167 -74.3000 90° East 270 311 4,700 -500 Descending New York TRACON
Sun 07:03:40 PM 40.9333 -74.2167 75° East 218 251 4,100 -333 Descending New York TRACON
Sun 07:04:46 PM 40.9333 -74.1167 90° East 220 253 4,000 -200 Descending New York TRACON
Sun 07:05:40 PM 40.9000 -74.0667 131° Southeast 221 254 3,700 -526 Descending New York TRACON
Sun 07:06:40 PM 40.8500 -74.0667 180° South 181 208 3,000 -595 Descending New York TRACON
Sun 07:07:41 PM 40.8000 -74.0833 194° South 166 191 2,500 -595 Descending New York TRACON
Sun 07:08:41 PM 40.7500 -74.0833 180° South 182 209 1,800 -756 Descending New York TRACON
Sun 07:09:40 PM 40.7167 -74.1000 201° Southwest 137 158 1,000 -655 Descending New York TRACON
Sun 07:10:40 PM 40.7000 -74.1333 237° Southwest 126 145 500 -500 Descending New York TRACON

Login

Don't have an account? Register now (free) for customized features, flight alerts, and more!